Time,TemperatureF,DewpointF,PressureIn,WindDirection,WindDirectionDegrees,WindSpeedMPH,WindSpeedGustMPH,Humidity,HourlyPrecipIn,Conditions,Clouds,dailyrainin,SoftwareType,DateUTC
2013-01-19 00:00:00,21.3,9.6,30.07,SSE,165,2.0,3.5,60,0.00,CLR,SCT,0.00,WeatherDisplay:10.37,2013-01-19 05:00:00,
2013-01-19 00:01:00,21.3,9.6,30.07,SSE,165,1.9,3.5,60,0.00,CLR,SCT,0.00,WeatherDisplay:10.37,2013-01-19 05:01:00,
2013-01-19 00:06:00,21.6,9.8,30.06,SSE,167,2.8,5.0,60,0.00,CLR,SCT,0.00,WeatherDisplay:10.37,2013-01-19 05:06:00,
2013-01-19 00:11:00,21.7,9.9,30.06,South,182,2.0,2.3,60,0.00,CLR,SCT,0.00,WeatherDisplay:10.37,2013-01-19 05:11:00,
2013-01-19 00:16:00,21.9,10.5,30.07,South,190,1.5,2.3,61,0.00,CLR,SCT,0.00,WeatherDisplay:10.37,2013-01-19 05:16:00,
2013-01-19 00:21:00,22.0,10.2,30.07,SSE,159,1.8,3.5,60,0.00,CLR,SCT,0.00,WeatherDisplay:10.37,2013-01-19 05:21:00,
2013-01-19 00:26:00,22.1,10.3,30.06,SSE,165,2.2,3.5,60,0.00,CLR,SCT,0.00,WeatherDisplay:10.37,2013-01-19 05:26:00,
2013-01-19 00:31:00,22.2,10.4,30.07,SSE,147,3.2,4.6,60,0.00,CLR,SCT,0.00,WeatherDisplay:10.37,2013-01-19 05:31:00,
2013-01-19 00:36:00,22.3,10.9,30.07,South,180,2.0,5.8,61,0.00,CLR,SCT,0.00,WeatherDisplay:10.37,2013-01-19 05:36:00,
2013-01-19 00:41:00,22.4,11.3,30.05,SSE,148,2.0,3.5,62,0.00,CLR,SCT,0.00,WeatherDisplay:10.37,2013-01-19 05:41:00,
2013-01-19 00:46:00,22.4,11.3,30.04,SSE,147,1.2,4.0,62,0.00,CLR,SCT,0.00,WeatherDisplay:10.37,2013-01-19 05:46:00,
2013-01-19 00:51:00,22.6,11.5,30.04,SSE,147,0.3,2.3,62,0.00,CLR,SCT,0.00,WeatherDisplay:10.37,2013-01-19 05:51:00,
2013-01-19 00:56:00,22.7,11.3,30.05,South,172,1.3,3.5,61,0.00,CLR,SCT,0.00,WeatherDisplay:10.37,2013-01-19 05:56:00,
2013-01-19 01:01:00,22.9,11.4,30.05,SSE,150,1.7,4.6,61,0.00,CLR,SCT,0.00,WeatherDisplay:10.37,2013-01-19 06:01:00,
2013-01-19 01:06:00,22.9,11.8,30.05,SSE,155,0.8,2.3,62,0.00,CLR,SCT,0.00,WeatherDisplay:10.37,2013-01-19 06:06:00,
2013-01-19 01:11:00,23.0,12.3,30.05,SSE,163,1.5,2.3,63,0.00,CLR,SCT,0.00,WeatherDisplay:10.37,2013-01-19 06:11:00,
2013-01-19 01:16:00,23.1,11.6,30.04,SSW,202,1.5,4.6,61,0.00,CLR,SCT,0.00,WeatherDisplay:10.37,2013-01-19 06:16:00,
2013-01-19 01:21:00,23.3,12.2,30.04,SSE,157,0.4,2.3,62,0.00,CLR,SCT,0.00,WeatherDisplay:10.37,2013-01-19 06:21:00,
2013-01-19 01:26:00,23.3,12.6,30.04,SSE,148,2.2,3.5,63,0.00,CLR,SCT,0.00,WeatherDisplay:10.37,2013-01-19 06:26:00,
2013-01-19 01:31:00,23.4,12.3,30.04,South,186,0.6,3.5,62,0.00,CLR,SCT,0.00,WeatherDisplay:10.37,2013-01-19 06:31:00,
2013-01-19 01:36:00,23.4,12.3,30.05,SSE,166,2.0,3.5,62,0.00,CLR,SCT,0.00,WeatherDisplay:10.37,2013-01-19 06:36:00,
2013-01-19 01:41:00,23.5,12.0,30.04,South,188,3.2,6.0,61,0.00,CLR,SCT,0.00,WeatherDisplay:10.37,2013-01-19 06:41:00,
2013-01-19 01:46:00,23.8,12.3,30.05,SSE,164,2.9,3.5,61,0.00,CLR,SCT,0.00,WeatherDisplay:10.37,2013-01-19 06:46:00,
2013-01-19 01:52:00,23.9,12.8,30.05,South,169,0.8,2.3,62,0.00,CLR,SCT,0.00,WeatherDisplay:10.37,2013-01-19 06:52:00,
2013-01-19 01:57:00,24.0,12.1,30.05,South,169,0.9,2.3,60,0.00,CLR,SCT,0.00,WeatherDisplay:10.37,2013-01-19 06:57:00,
2013-01-19 02:02:00,24.1,12.6,30.05,SSE,153,3.4,4.6,61,0.00,CLR,SCT,0.00,WeatherDisplay:10.37,2013-01-19 07:02:00,
2013-01-19 02:07:00,24.2,12.7,30.05,SSW,192,1.2,3.5,61,0.00,CLR,SCT,0.00,WeatherDisplay:10.37,2013-01-19 07:07:00,
2013-01-19 02:12:00,24.2,12.7,30.05,South,184,2.8,4.6,61,0.00,CLR,SCT,0.00,WeatherDisplay:10.37,2013-01-19 07:12:00,
2013-01-19 02:17:00,24.2,12.7,30.04,South,190,1.4,4.6,61,0.00,CLR,SCT,0.00,WeatherDisplay:10.37,2013-01-19 07:17:00,
2013-01-19 02:22:00,24.3,13.1,30.04,SE,146,2.5,4.0,62,0.00,CLR,SCT,0.00,WeatherDisplay:10.37,2013-01-19 07:22:00,
2013-01-19 02:27:00,24.4,12.9,30.03,SSW,205,1.9,4.6,61,0.00,CLR,SCT,0.00,WeatherDisplay:10.37,2013-01-19 07:27:00,
2013-01-19 02:32:00,24.4,12.9,30.03,South,184,1.8,3.5,61,0.00,CLR,SCT,0.00,WeatherDisplay:10.37,2013-01-19 07:32:00,
2013-01-19 02:37:00,24.7,12.8,30.03,South,181,3.6,4.6,60,0.00,CLR,SCT,0.00,WeatherDisplay:10.37,2013-01-19 07:37:00,
2013-01-19 02:42:00,24.8,12.9,30.02,South,177,1.5,3.5,60,0.00,CLR,SCT,0.00,WeatherDisplay:10.37,2013-01-19 07:42:00,
2013-01-19 02:47:00,24.8,13.2,30.03,South,185,1.5,6.0,61,0.00,CLR,SCT,0.00,WeatherDisplay:10.37,2013-01-19 07:47:00,
2013-01-19 02:52:00,24.9,12.6,30.02,SSE,159,5.8,9.2,59,0.00,CLR,SCT,0.00,WeatherDisplay:10.37,2013-01-19 07:52:00,
2013-01-19 02:57:00,24.9,13.0,30.02,South,178,1.7,4.6,60,0.00,CLR,SCT,0.00,WeatherDisplay:10.37,2013-01-19 07:57:00,
2013-01-19 03:02:00,24.8,12.9,30.02,South,179,2.0,3.5,60,0.00,CLR,SCT,0.00,WeatherDisplay:10.37,2013-01-19 08:02:00,
2013-01-19 03:07:00,24.9,12.6,30.02,SSW,204,2.4,6.9,59,0.00,CLR,SCT,0.00,WeatherDisplay:10.37,2013-01-19 08:07:00,
2013-01-19 03:12:00,25.0,12.7,30.02,South,177,4.2,5.8,59,0.00,CLR,SCT,0.00,WeatherDisplay:10.37,2013-01-19 08:12:00,
2013-01-19 03:17:00,25.2,12.9,30.02,SSW,207,2.0,6.9,59,0.00,CLR,SCT,0.00,WeatherDisplay:10.37,2013-01-19 08:17:00,
2013-01-19 03:22:00,25.3,13.0,30.02,SSE,165,2.9,5.8,59,0.00,CLR,SCT,0.00,WeatherDisplay:10.37,2013-01-19 08:22:00,
2013-01-19 03:27:00,25.4,12.7,30.02,South,175,3.1,5.8,58,0.00,CLR,SCT,0.00,WeatherDisplay:10.37,2013-01-19 08:27:00,
2013-01-19 03:32:00,25.2,12.9,30.01,SSE,167,2.3,4.6,59,0.00,CLR,SCT,0.00,WeatherDisplay:10.37,2013-01-19 08:32:00,
2013-01-19 03:37:00,25.2,13.2,30.01,South,188,4.1,6.9,60,0.00,CLR,SCT,0.00,WeatherDisplay:10.37,2013-01-19 08:37:00,
2013-01-19 03:42:00,25.4,13.1,30.00,South,176,2.7,4.6,59,0.00,CLR,SCT,0.00,WeatherDisplay:10.37,2013-01-19 08:42:00,
2013-01-19 03:47:00,25.5,13.1,30.00,South,188,3.8,8.0,59,0.00,CLR,SCT,0.00,WeatherDisplay:10.37,2013-01-19 08:47:00,
2013-01-19 03:52:00,25.6,12.9,30.00,SSW,192,5.7,8.1,58,0.00,CLR,SCT,0.00,WeatherDisplay:10.37,2013-01-19 08:52:00,
2013-01-19 03:57:00,25.7,12.9,29.99,SSW,200,4.8,6.9,58,0.00,CLR,SCT,0.00,WeatherDisplay:10.37,2013-01-19 08:57:00,
2013-01-19 04:02:00,25.8,13.0,29.99,SSW,212,3.6,6.0,58,0.00,CLR,SCT,0.00,WeatherDisplay:10.37,2013-01-19 09:02:00,
2013-01-19 04:07:00,25.8,13.4,29.99,SSW,205,5.0,6.9,59,0.00,CLR,SCT,0.00,WeatherDisplay:10.37,2013-01-19 09:07:00,
2013-01-19 04:12:00,25.9,13.1,29.99,SSW,195,6.0,6.9,58,0.00,CLR,SCT,0.00,WeatherDisplay:10.37,2013-01-19 09:12:00,
2013-01-19 04:17:00,26.0,13.2,30.00,SSE,167,4.4,5.8,58,0.00,CLR,SCT,0.00,WeatherDisplay:10.37,2013-01-19 09:17:00,
2013-01-19 04:22:00,26.1,13.7,29.99,South,188,5.2,6.0,59,0.00,CLR,SCT,0.00,WeatherDisplay:10.37,2013-01-19 09:22:00,
2013-01-19 04:27:00,26.1,13.7,29.99,South,190,3.3,6.9,59,0.00,CLR,SCT,0.00,WeatherDisplay:10.37,2013-01-19 09:27:00,
2013-01-19 04:32:00,26.1,13.7,29.99,South,183,4.3,5.0,59,0.00,CLR,SCT,0.00,WeatherDisplay:10.37,2013-01-19 09:32:00,
2013-01-19 04:37:00,26.2,13.8,29.99,South,184,3.8,5.8,59,0.00,CLR,SCT,0.00,WeatherDisplay:10.37,2013-01-19 09:37:00,
2013-01-19 04:42:00,26.2,14.2,29.98,South,178,2.3,4.6,60,0.00,CLR,SCT,0.00,WeatherDisplay:10.37,2013-01-19 09:42:00,
2013-01-19 04:47:00,26.3,14.3,29.98,South,173,3.3,4.6,60,0.00,CLR,SCT,0.00,WeatherDisplay:10.37,2013-01-19 09:47:00,
2013-01-19 04:52:00,26.3,14.3,29.98,South,180,5.0,6.9,60,0.00,CLR,SCT,0.00,WeatherDisplay:10.37,2013-01-19 09:52:00,
2013-01-19 04:57:00,26.3,14.3,29.97,South,184,5.0,5.8,60,0.00,CLR,SCT,0.00,WeatherDisplay:10.37,2013-01-19 09:57:00,
2013-01-19 05:02:00,26.3,14.3,29.97,South,176,4.3,5.8,60,0.00,CLR,SCT,0.00,WeatherDisplay:10.37,2013-01-19 10:02:00,
2013-01-19 05:07:00,26.3,14.7,29.97,South,188,3.2,5.8,61,0.00,CLR,SCT,0.00,WeatherDisplay:10.37,2013-01-19 10:07:00,
2013-01-19 05:12:00,26.3,15.0,29.97,South,186,2.1,3.5,62,0.00,CLR,SCT,0.00,WeatherDisplay:10.37,2013-01-19 10:12:00,
2013-01-19 05:17:00,26.4,14.8,29.97,SE,144,5.2,6.9,61,0.00,CLR,SCT,0.00,WeatherDisplay:10.37,2013-01-19 10:17:00,
2013-01-19 05:22:00,26.5,15.6,29.97,SSW,193,3.7,5.8,63,0.00,CLR,SCT,0.00,WeatherDisplay:10.37,2013-01-19 10:22:00,
2013-01-19 05:27:00,26.5,16.0,29.96,SSW,205,1.2,4.6,64,0.00,CLR,SCT,0.00,WeatherDisplay:10.37,2013-01-19 10:27:00,
2013-01-19 05:32:00,26.5,15.6,29.97,SSE,157,4.5,6.9,63,0.00,CLR,SCT,0.00,WeatherDisplay:10.37,2013-01-19 10:32:00,
2013-01-19 05:37:00,26.7,15.8,29.96,SSE,162,3.6,6.9,63,0.00,CLR,SCT,0.00,WeatherDisplay:10.37,2013-01-19 10:37:00,
2013-01-19 05:42:00,26.7,15.8,29.96,SSE,163,4.0,4.6,63,0.00,CLR,SCT,0.00,WeatherDisplay:10.37,2013-01-19 10:42:00,
2013-01-19 05:48:00,26.7,16.1,29.96,SSW,194,3.5,5.8,64,0.00,CLR,SCT,0.00,WeatherDisplay:10.37,2013-01-19 10:48:00,
2013-01-19 05:53:00,26.8,16.6,29.96,SSW,192,3.2,5.0,65,0.00,CLR,SCT,0.00,WeatherDisplay:10.37,2013-01-19 10:53:00,
2013-01-19 05:58:00,26.9,16.7,29.96,SSW,194,4.4,4.6,65,0.00,CLR,SCT,0.00,WeatherDisplay:10.37,2013-01-19 10:58:00,
2013-01-19 06:03:00,27.0,16.8,29.96,South,178,4.2,6.0,65,0.00,CLR,SCT,0.00,WeatherDisplay:10.37,2013-01-19 11:03:00,
2013-01-19 06:08:00,27.1,17.2,29.96,South,171,3.5,4.6,66,0.00,CLR,SCT,0.00,WeatherDisplay:10.37,2013-01-19 11:08:00,
2013-01-19 06:13:00,27.2,17.3,29.96,SSW,202,3.1,6.0,66,0.00,CLR,SCT,0.00,WeatherDisplay:10.37,2013-01-19 11:13:00,
2013-01-19 16:37:00,40.4,26.4,29.74,SSE,161,0.8,4.0,57,0.01,RA,SCT,0.06,WeatherDisplay:10.37,2013-01-19 21:37:00,
2013-01-19 16:42:00,40.5,26.0,29.74,South,180,2.8,4.6,56,0.00,RA,SCT,0.06,WeatherDisplay:10.37,2013-01-19 21:42:00,
2013-01-19 16:47:00,40.6,26.1,29.74,SSW,195,2.7,4.6,56,0.00,CLR,SCT,0.06,WeatherDisplay:10.37,2013-01-19 21:47:00,
2013-01-19 16:53:00,40.6,25.7,29.74,South,175,2.4,3.5,55,0.00,CLR,SCT,0.06,WeatherDisplay:10.37,2013-01-19 21:53:00,
2013-01-19 16:58:00,40.7,25.8,29.74,SSW,194,1.2,3.5,55,0.00,CLR,SCT,0.06,WeatherDisplay:10.37,2013-01-19 21:58:00,
2013-01-19 17:03:00,40.6,25.7,29.73,South,190,1.6,4.0,55,0.00,CLR,SCT,0.06,WeatherDisplay:10.37,2013-01-19 22:03:00,
2013-01-19 17:08:00,40.6,25.7,29.73,SSW,205,0.7,3.5,55,0.00,CLR,SCT,0.06,WeatherDisplay:10.37,2013-01-19 22:08:00,
2013-01-19 17:13:00,40.5,25.6,29.73,South,182,2.9,5.8,55,0.00,CLR,SCT,0.06,WeatherDisplay:10.37,2013-01-19 22:13:00,
2013-01-19 17:18:00,40.6,25.7,29.73,SSW,194,4.1,5.0,55,0.00,CLR,SCT,0.06,WeatherDisplay:10.37,2013-01-19 22:18:00,
2013-01-19 17:23:00,40.8,25.9,29.73,South,180,2.8,4.6,55,0.00,CLR,SCT,0.06,WeatherDisplay:10.37,2013-01-19 22:23:00,
2013-01-19 17:28:00,40.6,25.7,29.73,South,189,2.7,4.0,55,0.00,CLR,SCT,0.06,WeatherDisplay:10.37,2013-01-19 22:28:00,
2013-01-19 17:33:00,40.6,25.7,29.73,SSE,165,2.2,4.0,55,0.00,CLR,SCT,0.06,WeatherDisplay:10.37,2013-01-19 22:33:00,
2013-01-19 17:38:00,40.5,26.0,29.73,South,178,1.3,2.3,56,0.00,CLR,SCT,0.06,WeatherDisplay:10.37,2013-01-19 22:38:00,
2013-01-19 17:44:00,40.3,25.8,29.72,South,178,2.1,5.8,56,0.00,CLR,SCT,0.06,WeatherDisplay:10.37,2013-01-19 22:44:00,
2013-01-19 17:49:00,40.6,26.1,29.72,South,181,1.3,3.5,56,0.00,CLR,SCT,0.06,WeatherDisplay:10.37,2013-01-19 22:49:00,
2013-01-19 17:54:00,40.4,25.9,29.72,South,171,1.5,2.3,56,0.00,CLR,SCT,0.06,WeatherDisplay:10.37,2013-01-19 22:54:00,
2013-01-19 17:59:00,40.1,26.1,29.72,South,173,1.1,2.3,57,0.00,CLR,SCT,0.06,WeatherDisplay:10.37,2013-01-19 22:59:00,
2013-01-19 18:04:00,40.1,26.1,29.72,South,173,1.0,2.3,57,0.00,CLR,SCT,0.06,WeatherDisplay:10.37,2013-01-19 23:04:00,
2013-01-19 18:09:00,40.1,26.1,29.72,South,169,2.2,4.6,57,0.00,CLR,SCT,0.06,WeatherDisplay:10.37,2013-01-19 23:09:00,
2013-01-19 18:14:00,40.1,26.1,29.72,SSE,165,1.6,2.3,57,0.00,CLR,SCT,0.06,WeatherDisplay:10.37,2013-01-19 23:14:00,
2013-01-19 18:19:00,40.0,26.4,29.72,South,171,2.3,3.5,58,0.00,CLR,SCT,0.06,WeatherDisplay:10.37,2013-01-19 23:19:00,
2013-01-19 18:24:00,40.5,26.4,29.72,SSW,194,3.2,4.6,57,0.00,CLR,SCT,0.06,WeatherDisplay:10.37,2013-01-19 23:24:00,
2013-01-19 18:29:00,40.5,26.4,29.71,South,182,2.0,3.5,57,0.00,CLR,SCT,0.06,WeatherDisplay:10.37,2013-01-19 23:29:00,
2013-01-19 18:34:00,40.3,26.3,29.71,South,182,1.2,2.3,57,0.00,CLR,SCT,0.06,WeatherDisplay:10.37,2013-01-19 23:34:00,
2013-01-19 18:39:00,40.5,26.4,29.71,SSW,192,1.6,3.5,57,0.00,CLR,SCT,0.06,WeatherDisplay:10.37,2013-01-19 23:39:00,
2013-01-19 18:44:00,40.3,26.3,29.71,SSW,192,1.1,3.0,57,0.00,CLR,SCT,0.06,WeatherDisplay:10.37,2013-01-19 23:44:00,
2013-01-19 18:49:00,40.2,26.6,29.71,South,191,1.3,3.0,58,0.00,CLR,SCT,0.06,WeatherDisplay:10.37,2013-01-19 23:49:00,
2013-01-19 18:54:00,40.4,26.4,29.71,SSE,165,2.0,4.0,57,0.00,CLR,SCT,0.06,WeatherDisplay:10.37,2013-01-19 23:54:00,
2013-01-19 19:00:00,40.6,26.5,29.71,South,169,2.5,5.0,57,0.00,CLR,SCT,0.06,WeatherDisplay:10.37,2013-01-20 00:00:00,
2013-01-19 19:05:00,40.7,26.2,29.70,SSE,166,3.8,4.6,56,0.00,CLR,SCT,0.06,WeatherDisplay:10.37,2013-01-20 00:05:00,
2013-01-19 19:10:00,41.2,26.7,29.70,South,174,3.7,6.0,56,0.00,CLR,SCT,0.06,WeatherDisplay:10.37,2013-01-20 00:10:00,
2013-01-19 19:15:00,41.3,27.2,29.70,South,177,1.6,3.5,57,0.00,CLR,SCT,0.06,WeatherDisplay:10.37,2013-01-20 00:15:00,
2013-01-19 19:20:00,41.2,26.7,29.70,South,173,2.2,3.5,56,0.00,CLR,SCT,0.06,WeatherDisplay:10.37,2013-01-20 00:20:00,
2013-01-19 19:25:00,41.5,27.0,29.70,SSE,167,4.2,4.6,56,0.01,RA,SCT,0.07,WeatherDisplay:10.37,2013-01-20 00:25:00,
2013-01-19 19:31:00,41.9,26.4,29.70,South,170,2.3,3.5,54,0.01,RA,SCT,0.07,WeatherDisplay:10.37,2013-01-20 00:31:00,
2013-01-19 19:36:00,42.0,26.5,29.70,SSE,167,1.9,3.5,54,0.01,CLR,SCT,0.07,WeatherDisplay:10.37,2013-01-20 00:36:00,
2013-01-19 19:41:00,42.0,26.5,29.70,SSE,168,2.9,4.6,54,0.01,CLR,SCT,0.07,WeatherDisplay:10.37,2013-01-20 00:41:00,
2013-01-19 19:47:00,42.0,26.5,29.69,South,190,2.0,3.5,54,0.01,CLR,SCT,0.07,WeatherDisplay:10.37,2013-01-20 00:47:00,
2013-01-19 19:52:00,42.1,27.1,29.69,South,182,1.9,2.3,55,0.01,CLR,SCT,0.07,WeatherDisplay:10.37,2013-01-20 00:52:00,
2013-01-19 19:57:00,42.0,26.5,29.69,South,170,0.9,2.3,54,0.01,CLR,SCT,0.07,WeatherDisplay:10.37,2013-01-20 00:57:00,
2013-01-19 20:02:00,42.0,26.1,29.69,South,182,2.0,2.3,53,0.01,CLR,SCT,0.07,WeatherDisplay:10.37,2013-01-20 01:02:00,
2013-01-19 20:07:00,42.0,26.5,29.68,South,187,2.0,3.5,54,0.01,CLR,SCT,0.07,WeatherDisplay:10.37,2013-01-20 01:07:00,
2013-01-19 20:12:00,42.1,26.6,29.68,South,180,1.5,3.5,54,0.01,CLR,SCT,0.07,WeatherDisplay:10.37,2013-01-20 01:12:00,
2013-01-19 20:17:00,42.0,27.0,29.68,SE,135,1.0,4.6,55,0.01,CLR,SCT,0.07,WeatherDisplay:10.37,2013-01-20 01:17:00,
2013-01-19 20:22:00,42.2,27.2,29.68,SSE,153,2.2,4.0,55,0.01,CLR,SCT,0.07,WeatherDisplay:10.37,2013-01-20 01:22:00,
2013-01-19 20:27:00,42.1,27.1,29.68,South,187,2.1,4.6,55,0.00,CLR,SCT,0.07,WeatherDisplay:10.37,2013-01-20 01:27:00,
2013-01-19 20:32:00,42.2,26.7,29.67,South,178,1.7,5.8,54,0.00,CLR,SCT,0.07,WeatherDisplay:10.37,2013-01-20 01:32:00,
2013-01-19 20:37:00,42.2,27.2,29.67,South,182,1.8,3.5,55,0.00,CLR,SCT,0.07,WeatherDisplay:10.37,2013-01-20 01:37:00,
2013-01-19 20:42:00,41.9,26.9,29.67,South,184,1.4,3.5,55,0.00,CLR,SCT,0.07,WeatherDisplay:10.37,2013-01-20 01:42:00,
2013-01-19 20:47:00,41.8,27.7,29.67,SE,140,1.5,3.5,57,0.00,CLR,SCT,0.07,WeatherDisplay:10.37,2013-01-20 01:47:00,
2013-01-19 20:52:00,41.8,27.7,29.66,SW,214,1.1,3.5,57,0.00,CLR,SCT,0.07,WeatherDisplay:10.37,2013-01-20 01:52:00,
2013-01-19 20:57:00,41.8,27.7,29.66,South,170,0.6,3.5,57,0.00,CLR,SCT,0.07,WeatherDisplay:10.37,2013-01-20 01:57:00,
2013-01-19 21:02:00,41.9,27.8,29.66,SSE,150,0.2,2.3,57,0.01,RA,SCT,0.08,WeatherDisplay:10.37,2013-01-20 02:02:00,
2013-01-19 21:07:00,41.9,27.8,29.66,SSE,163,0.7,3.5,57,0.01,RA,SCT,0.08,WeatherDisplay:10.37,2013-01-20 02:07:00,
2013-01-19 21:13:00,41.8,27.7,29.65,SSE,164,1.6,3.5,57,0.01,CLR,SCT,0.08,WeatherDisplay:10.37,2013-01-20 02:13:00,
2013-01-19 21:18:00,41.8,27.7,29.65,SSE,155,2.0,4.6,57,0.01,CLR,SCT,0.08,WeatherDisplay:10.37,2013-01-20 02:18:00,
2013-01-19 21:23:00,41.9,27.8,29.65,SSW,194,3.1,6.9,57,0.01,CLR,SCT,0.08,WeatherDisplay:10.37,2013-01-20 02:23:00,
2013-01-19 21:28:00,41.8,28.1,29.65,South,176,0.9,2.3,58,0.01,CLR,SCT,0.08,WeatherDisplay:10.37,2013-01-20 02:28:00,
2013-01-19 21:33:00,41.7,28.0,29.65,SSW,202,1.3,3.5,58,0.01,CLR,SCT,0.08,WeatherDisplay:10.37,2013-01-20 02:33:00,
2013-01-19 21:38:00,41.9,28.2,29.64,South,190,1.0,2.3,58,0.01,CLR,SCT,0.08,WeatherDisplay:10.37,2013-01-20 02:38:00,
2013-01-19 21:43:00,41.6,27.9,29.64,South,169,1.5,2.3,58,0.01,CLR,SCT,0.08,WeatherDisplay:10.37,2013-01-20 02:43:00,
2013-01-19 21:48:00,41.6,27.9,29.64,SSE,165,2.0,3.5,58,0.01,CLR,SCT,0.08,WeatherDisplay:10.37,2013-01-20 02:48:00,
2013-01-19 21:53:00,41.6,27.9,29.64,South,173,0.9,4.6,58,0.01,CLR,SCT,0.08,WeatherDisplay:10.37,2013-01-20 02:53:00,
2013-01-19 21:59:00,41.5,28.2,29.64,SSE,167,1.2,2.3,59,0.01,CLR,SCT,0.08,WeatherDisplay:10.37,2013-01-20 02:59:00,
2013-01-19 22:04:00,41.5,28.2,29.63,South,184,1.8,3.5,59,0.00,CLR,SCT,0.08,WeatherDisplay:10.37,2013-01-20 03:04:00,
2013-01-19 22:09:00,41.4,28.5,29.63,South,187,1.1,2.3,60,0.00,CLR,SCT,0.08,WeatherDisplay:10.37,2013-01-20 03:09:00,
2013-01-19 22:14:00,41.3,28.0,29.63,SSE,161,0.5,2.3,59,0.01,RA,SCT,0.09,WeatherDisplay:10.37,2013-01-20 03:14:00,
2013-01-19 22:19:00,41.3,28.0,29.63,South,189,2.4,4.6,59,0.01,RA,SCT,0.09,WeatherDisplay:10.37,2013-01-20 03:19:00,
2013-01-19 22:24:00,41.3,28.0,29.62,South,174,3.3,6.0,59,0.01,,SCT,0.09,WeatherDisplay:10.37,2013-01-20 03:24:00,
2013-01-19 22:29:00,41.3,28.4,29.62,South,169,3.2,6.9,60,0.01,CLR,SCT,0.09,WeatherDisplay:10.37,2013-01-20 03:29:00,
2013-01-19 22:34:00,41.3,28.4,29.62,SSW,193,2.3,5.0,60,0.01,CLR,SCT,0.09,WeatherDisplay:10.37,2013-01-20 03:34:00,
2013-01-19 22:39:00,41.3,28.0,29.61,South,182,4.1,5.0,59,0.01,CLR,SCT,0.09,WeatherDisplay:10.37,2013-01-20 03:39:00,
2013-01-19 22:44:00,41.3,28.4,29.61,SSE,148,1.5,3.5,60,0.01,CLR,SCT,0.09,WeatherDisplay:10.37,2013-01-20 03:44:00,
2013-01-19 22:49:00,41.1,28.3,29.61,SSE,160,4.3,5.8,60,0.01,CLR,SCT,0.09,WeatherDisplay:10.37,2013-01-20 03:49:00,
2013-01-19 22:54:00,41.0,28.2,29.61,South,170,2.8,4.6,60,0.01,CLR,SCT,0.09,WeatherDisplay:10.37,2013-01-20 03:54:00,
2013-01-19 22:59:00,41.1,28.3,29.60,South,185,2.4,4.6,60,0.01,CLR,SCT,0.09,WeatherDisplay:10.37,2013-01-20 03:59:00,
2013-01-19 23:04:00,41.0,28.2,29.60,South,183,2.2,10.4,60,0.01,CLR,SCT,0.09,WeatherDisplay:10.37,2013-01-20 04:04:00,
2013-01-19 23:09:00,40.8,28.4,29.60,SSE,161,2.8,4.6,61,0.01,CLR,SCT,0.09,WeatherDisplay:10.37,2013-01-20 04:09:00,
2013-01-19 23:14:00,40.6,28.2,29.60,SSE,157,4.8,6.9,61,0.00,CLR,SCT,0.09,WeatherDisplay:10.37,2013-01-20 04:14:00,
2013-01-19 23:19:00,40.6,28.2,29.59,South,173,2.1,4.6,61,0.00,CLR,SCT,0.09,WeatherDisplay:10.37,2013-01-20 04:19:00,
2013-01-19 23:24:00,40.7,28.7,29.59,SSE,167,2.9,4.6,62,0.00,CLR,SCT,0.09,WeatherDisplay:10.37,2013-01-20 04:24:00,
2013-01-19 23:29:00,40.5,28.5,29.59,SSE,151,3.6,4.6,62,0.00,CLR,SCT,0.09,WeatherDisplay:10.37,2013-01-20 04:29:00,
2013-01-19 23:34:00,40.3,28.3,29.59,SSE,168,3.1,4.6,62,0.00,CLR,SCT,0.09,WeatherDisplay:10.37,2013-01-20 04:34:00,
2013-01-19 23:39:00,40.5,28.5,29.58,SSE,165,5.7,5.7,62,0.01,RA,SCT,0.10,WeatherDisplay:10.37,2013-01-20 04:39:00,
2013-01-19 23:44:00,40.5,28.5,29.58,SE,132,2.6,5.0,62,0.01,RA,SCT,0.10,WeatherDisplay:10.37,2013-01-20 04:44:00,
2013-01-19 23:49:00,40.4,28.4,29.58,South,180,2.8,4.6,62,0.01,CLR,SCT,0.10,WeatherDisplay:10.37,2013-01-20 04:49:00,
2013-01-19 23:54:00,40.3,28.7,29.58,South,178,2.2,3.5,63,0.01,CLR,SCT,0.10,WeatherDisplay:10.37,2013-01-20 04:54:00,